Aérodrome :
LOGIN :

S'inscrire | Disclaimer

   EN    FR    IT 

 










Légende :    VFR   VFR Marginal   IFR   IFR Intensif   IFR Très Intensif
Visi : 
Plafond : 
>= 8 km
>= 3000ft
5 à 8 km
1000 à 3000 ft
1500m à 5 km
500 à 1000 ft
800 à 1500m
200 à 500 ft
< 800m
< 200 ft
Symboles :   Orages  Brouillard  Fortes neiges  Fortes précipitations  Vent > 20 kt
SIGMETs :   Divers  Orages  Givrage  Turbulence  Onde Orograph.  Cendres Volcan.






- Altitude de l'aérodrome : 297 ft
- Code IATA : BBU


LRBS - Bucarest - Baneasa Aurel Vlaicu

DERNIER METAR :
  • 220300Z 04001KT 0450 R07/0500 R25/0550 FG VV002 10/10 Q1024 NOSIG

METARs EXPIRÉS :
  • 220230Z 01002KT 0700 R07/1100 R25/1400 FG VV001 10/10 Q1023 NOSIG
  • 220200Z 00000KT 0250 R07/0300N R25/0250N FG VV001 11/11 Q1023 TEMPO 0150 FG
  • 220130Z 02001KT 0300 R07/0300 R25/0800 FG VV001 11/11 Q1023 TEMPO 0150 FG
  • 220100Z 03001KT 0400 R07/0250N R25/1700 FG NSC 11/10 Q1023 BECMG BKN001
  • 220030Z 36001KT 0900 R07/0700 R25/0900 FG NSC 11/11 Q1023 TEMPO 0600 FG

TAF TAF LRBS
Valide du 22 à 00h jusqu'au 23 à 00h UTC


212300Z 2200/2224 VRB04KT 1500 BR NSC
BECMG 2200/2202 0600 FG BKN002
TEMPO 2202/2207 0150 FG VV001
BECMG 2207/2209 3000 BR BKN005
BECMG 2209/2210 CAVOK
BECMG 2221/2223 5000 BR



MET'MAP, la Météo Aéronautique d'un coup d'oeil ! - Copyright ORBIFLY Décembre 2007 - Disclaimer

ORBIFLY MET'MAP TEAM :

Programmation & Développement : Alexandra Zaïnal
Conception & Développement : Baudouin d'Aumeries
Co-Programmation & Développement : Marc-Olivier Méhu
Soutien technique & logistique : Manuel Goepfert

Contact : metmap@orbifly.com




SOURCES & CREDITS :

   NOAA